Time;durP1;ratioP1;P1;durP2;ratioP2;P2;SDS_P1;SDS_P2;PMS_P1;PMS_P2;Temp;Humidity;BMP_temperature;BMP_pressure;BME280_temperature;BME280_humidity;BME280_pressure;Samples;Min_cycle;Max_cycle;Signal;HPM_P1;HPM_P2
2023/01/22 00:01:07;;;;;;;4.63;4.32;;;;;;;;;;5097272;28;20083;-95
2023/01/22 00:03:39;;;;;;;4.07;3.78;;;;;;;;;;5099611;28;20135;-94
2023/01/22 00:06:06;;;;;;;4.22;3.95;;;;;;;;;;5097687;28;20134;-95
2023/01/22 00:08:34;;;;;;;4.53;4.15;;;;;;;;;;5099184;28;20046;-93
2023/01/22 00:11:03;;;;;;;3.35;3.15;;;;;;;;;;5097428;28;20055;-95
2023/01/22 00:13:30;;;;;;;3.75;3.45;;;;;;;;;;5096219;28;20140;-95
2023/01/22 00:15:58;;;;;;;4.50;4.10;;;;;;;;;;5095541;28;20114;-95
2023/01/22 00:18:26;;;;;;;4.45;4.15;;;;;;;;;;5095910;28;20506;-94
2023/01/22 00:20:54;;;;;;;4.38;4.07;;;;;;;;;;5095136;28;20044;-95
2023/01/22 00:23:22;;;;;;;4.07;3.78;;;;;;;;;;5095196;28;20080;-95
2023/01/22 00:25:49;;;;;;;3.70;3.50;;;;;;;;;;5097160;28;20507;-95
2023/01/22 00:28:17;;;;;;;4.20;3.97;;;;;;;;;;5096979;28;20044;-95
2023/01/22 00:30:44;;;;;;;4.28;3.97;;;;;;;;;;5095838;28;20135;-95
2023/01/22 00:33:11;;;;;;;3.67;3.38;;;;;;;;;;5095833;28;20165;-95
2023/01/22 00:35:39;;;;;;;3.60;3.40;;;;;;;;;;5094792;28;20139;-95
2023/01/22 00:38:06;;;;;;;4.18;3.88;;;;;;;;;;5094494;28;20120;-96
2023/01/22 00:40:33;;;;;;;3.75;3.55;;;;;;;;;;5095880;28;20151;-95
2023/01/22 00:43:01;;;;;;;3.65;3.40;;;;;;;;;;5097524;28;20048;-94
2023/01/22 00:45:29;;;;;;;3.67;3.35;;;;;;;;;;5096159;28;20052;-95
2023/01/22 00:47:56;;;;;;;3.90;3.70;;;;;;;;;;5095922;28;20534;-96
2023/01/22 00:50:24;;;;;;;3.63;3.42;;;;;;;;;;5094766;28;20051;-96
2023/01/22 00:52:52;;;;;;;3.80;3.60;;;;;;;;;;5097364;28;20127;-95
2023/01/22 00:55:19;;;;;;;3.80;3.60;;;;;;;;;;5097215;28;20047;-95
2023/01/22 00:57:46;;;;;;;4.57;4.18;;;;;;;;;;5097911;28;20173;-95
2023/01/22 01:00:16;;;;;;;4.05;3.75;;;;;;;;;;5097340;28;20051;-95
2023/01/22 01:05:30;;;;;;;3.67;3.47;;;;;;;;;;5099326;28;20071;-95
2023/01/22 01:07:59;;;;;;;4.00;3.70;;;;;;;;;;5097730;28;20101;-95
2023/01/22 01:10:29;;;;;;;4.63;4.32;;;;;;;;;;5101067;28;20123;-94
2023/01/22 01:12:56;;;;;;;4.47;4.18;;;;;;;;;;5098407;28;20131;-95
2023/01/22 01:15:24;;;;;;;4.05;3.80;;;;;;;;;;5098233;28;20052;-95
2023/01/22 01:17:52;;;;;;;4.07;3.78;;;;;;;;;;5097248;28;20094;-94
2023/01/22 01:20:19;;;;;;;4.60;4.20;;;;;;;;;;5098440;28;20111;-95
2023/01/22 01:22:46;;;;;;;4.65;4.35;;;;;;;;;;5097416;28;20058;-95
2023/01/22 01:25:15;;;;;;;4.55;4.25;;;;;;;;;;5098987;28;20044;-94
2023/01/22 01:27:43;;;;;;;4.95;4.57;;;;;;;;;;5097393;28;20059;-96
2023/01/22 01:30:12;;;;;;;5.05;4.75;;;;;;;;;;5081624;28;20079;-95
2023/01/22 01:32:42;;;;;;;4.65;4.25;;;;;;;;;;5098322;28;20058;-95
2023/01/22 01:35:09;;;;;;;4.45;4.15;;;;;;;;;;5080598;28;20147;-95
2023/01/22 01:37:38;;;;;;;4.47;4.18;;;;;;;;;;5099442;28;20051;-94
2023/01/22 01:40:07;;;;;;;4.65;4.28;;;;;;;;;;5099022;28;20349;-95
2023/01/22 01:42:35;;;;;;;5.78;5.38;;;;;;;;;;5097841;28;20044;-96
2023/01/22 01:45:23;;;;;;;4.72;4.43;;;;;;;;;;5097092;28;20109;-95
2023/01/22 01:48:14;;;;;;;4.65;4.30;;;;;;;;;;5098725;28;20471;-95
2023/01/22 01:50:42;;;;;;;3.97;3.67;;;;;;;;;;5098541;28;20153;-94
2023/01/22 01:53:10;;;;;;;4.20;3.90;;;;;;;;;;5097278;28;20083;-95
2023/01/22 01:55:39;;;;;;;4.35;4.05;;;;;;;;;;5095591;28;20488;-95
2023/01/22 01:58:11;;;;;;;4.72;4.32;;;;;;;;;;5098352;28;20381;-95
2023/01/22 02:00:40;;;;;;;3.97;3.70;;;;;;;;;;5096157;28;20048;-95
2023/01/22 02:03:09;;;;;;;3.83;3.53;;;;;;;;;;5096750;28;20048;-96
2023/01/22 02:05:37;;;;;;;5.03;4.63;;;;;;;;;;5096563;28;20138;-95
2023/01/22 02:08:07;;;;;;;4.00;3.70;;;;;;;;;;5099013;28;20463;-95
2023/01/22 02:10:35;;;;;;;4.82;4.32;;;;;;;;;;5098186;28;20048;-94
2023/01/22 02:13:06;;;;;;;5.25;4.85;;;;;;;;;;5096216;28;20079;-95
2023/01/22 02:15:35;;;;;;;4.10;3.80;;;;;;;;;;5097633;28;20048;-96
2023/01/22 02:18:03;;;;;;;4.90;4.40;;;;;;;;;;5079890;28;20067;-95
2023/01/22 02:20:38;;;;;;;4.88;4.47;;;;;;;;;;5096253;28;20051;-95
2023/01/22 02:23:06;;;;;;;4.40;4.03;;;;;;;;;;5096104;28;20067;-94
2023/01/22 02:25:33;;;;;;;4.35;4.05;;;;;;;;;;5095161;28;20047;-95
2023/01/22 02:28:00;;;;;;;4.82;4.43;;;;;;;;;;5095931;28;20119;-95
2023/01/22 02:30:28;;;;;;;4.90;4.40;;;;;;;;;;5099271;28;20126;-95
2023/01/22 02:32:55;;;;;;;5.90;5.40;;;;;;;;;;5100070;28;20051;-95
2023/01/22 02:35:24;;;;;;;5.50;5.03;;;;;;;;;;5099303;28;20058;-96
2023/01/22 02:37:51;;;;;;;4.78;4.38;;;;;;;;;;5101235;28;20052;-96
2023/01/22 02:40:19;;;;;;;5.13;4.72;;;;;;;;;;5101350;28;20052;-95
2023/01/22 02:42:46;;;;;;;5.95;5.45;;;;;;;;;;5099796;28;20135;-95
2023/01/22 02:45:14;;;;;;;5.78;5.28;;;;;;;;;;5098634;28;20116;-95
2023/01/22 02:47:41;;;;;;;4.97;4.57;;;;;;;;;;5097380;28;20056;-95
2023/01/22 02:50:09;;;;;;;6.57;5.97;;;;;;;;;;5097117;28;20061;-95
2023/01/22 02:52:36;;;;;;;6.00;5.50;;;;;;;;;;5097321;28;20076;-95
2023/01/22 02:55:04;;;;;;;5.78;5.28;;;;;;;;;;5096539;28;20143;-95
2023/01/22 02:57:31;;;;;;;5.90;5.38;;;;;;;;;;5096427;28;20139;-94
2023/01/22 02:59:59;;;;;;;5.97;5.47;;;;;;;;;;5098008;28;20142;-96
2023/01/22 03:02:27;;;;;;;5.22;4.82;;;;;;;;;;5098303;28;20132;-96
2023/01/22 03:05:02;;;;;;;5.60;5.10;;;;;;;;;;5098354;28;20044;-95
2023/01/22 03:07:40;;;;;;;5.65;5.15;;;;;;;;;;5097429;28;20059;-95
2023/01/22 03:10:16;;;;;;;6.25;5.65;;;;;;;;;;5098012;28;20048;-95
2023/01/22 03:21:15;;;;;;;6.18;5.68;;;;;;;;;;5097072;28;20066;-95
2023/01/22 03:23:44;;;;;;;6.57;5.85;;;;;;;;;;5095729;28;20056;-94
2023/01/22 03:26:12;;;;;;;6.72;6.05;;;;;;;;;;5096076;28;20054;-95
2023/01/22 03:28:44;;;;;;;6.05;5.55;;;;;;;;;;5096339;28;20063;-95
2023/01/22 03:31:12;;;;;;;5.90;5.40;;;;;;;;;;5095990;28;20054;-95
2023/01/22 03:33:40;;;;;;;4.70;4.40;;;;;;;;;;5095630;28;20048;-95
2023/01/22 03:36:09;;;;;;;5.18;4.78;;;;;;;;;;5095035;28;20495;-94
2023/01/22 03:38:36;;;;;;;5.50;5.10;;;;;;;;;;5095041;28;20044;-95
2023/01/22 03:41:05;;;;;;;5.30;4.90;;;;;;;;;;5093704;28;20058;-95
2023/01/22 03:43:32;;;;;;;5.68;5.18;;;;;;;;;;5095771;28;20048;-95
2023/01/22 03:46:01;;;;;;;5.70;5.20;;;;;;;;;;5094860;28;20127;-94
2023/01/22 03:48:29;;;;;;;6.32;5.72;;;;;;;;;;5094124;28;20055;-96
2023/01/22 03:50:56;;;;;;;6.13;5.47;;;;;;;;;;5094292;28;20082;-95
2023/01/22 03:53:23;;;;;;;6.57;5.97;;;;;;;;;;5095322;28;20488;-95
2023/01/22 03:55:58;;;;;;;5.70;5.20;;;;;;;;;;5094869;28;20131;-95
2023/01/22 03:58:25;;;;;;;6.43;5.82;;;;;;;;;;5095225;28;20075;-95
2023/01/22 04:00:56;;;;;;;6.43;5.82;;;;;;;;;;5094970;28;20575;-95
2023/01/22 04:03:25;;;;;;;6.28;5.75;;;;;;;;;;5094867;28;20055;-95
2023/01/22 04:05:52;;;;;;;6.00;5.40;;;;;;;;;;5094401;28;20054;-94
2023/01/22 04:08:20;;;;;;;5.85;5.35;;;;;;;;;;5094226;28;20498;-94
2023/01/22 04:10:47;;;;;;;5.90;5.40;;;;;;;;;;5094409;28;20139;-95
2023/01/22 04:13:15;;;;;;;5.88;5.22;;;;;;;;;;5094524;28;20067;-95
2023/01/22 04:15:43;;;;;;;5.38;4.88;;;;;;;;;;5094027;28;20554;-94
2023/01/22 04:18:11;;;;;;;5.88;5.38;;;;;;;;;;5093945;28;20408;-94
2023/01/22 04:20:39;;;;;;;5.30;4.80;;;;;;;;;;5093811;28;20072;-94
2023/01/22 04:23:07;;;;;;;6.00;5.50;;;;;;;;;;5093744;28;20118;-94
2023/01/22 04:25:35;;;;;;;6.03;5.43;;;;;;;;;;5094263;28;20124;-94
2023/01/22 04:28:02;;;;;;;6.50;5.88;;;;;;;;;;5094344;28;20052;-94
2023/01/22 04:30:30;;;;;;;7.35;6.60;;;;;;;;;;5094393;28;20040;-95
2023/01/22 04:32:57;;;;;;;7.13;6.43;;;;;;;;;;5094413;28;20115;-94
2023/01/22 04:35:24;;;;;;;6.63;5.95;;;;;;;;;;5094068;28;20404;-95
2023/01/22 04:37:52;;;;;;;7.13;6.53;;;;;;;;;;5093978;28;20545;-95
2023/01/22 04:40:22;;;;;;;7.40;6.47;;;;;;;;;;5094787;28;20043;-95
2023/01/22 04:42:49;;;;;;;8.40;7.15;;;;;;;;;;5094249;28;20135;-95
2023/01/22 04:45:17;;;;;;;9.02;6.70;;;;;;;;;;5094248;28;20052;-95
2023/01/22 04:47:46;;;;;;;7.93;7.13;;;;;;;;;;5094093;28;20083;-95
2023/01/22 04:50:24;;;;;;;6.97;6.38;;;;;;;;;;5094025;28;20048;-96
2023/01/22 04:52:52;;;;;;;7.57;6.75;;;;;;;;;;5093897;28;20502;-96
2023/01/22 04:55:20;;;;;;;6.00;5.50;;;;;;;;;;5094126;28;20127;-95
2023/01/22 04:57:48;;;;;;;6.72;6.03;;;;;;;;;;5093819;28;20127;-95
2023/01/22 05:00:16;;;;;;;7.30;6.65;;;;;;;;;;5093433;28;20056;-95
2023/01/22 05:02:43;;;;;;;7.22;6.53;;;;;;;;;;5093582;28;20048;-95
2023/01/22 05:05:12;;;;;;;6.85;6.13;;;;;;;;;;5094147;28;20113;-95
2023/01/22 05:07:42;;;;;;;5.95;5.45;;;;;;;;;;5096565;28;20052;-95
2023/01/22 05:10:09;;;;;;;5.80;5.30;;;;;;;;;;5094947;28;20539;-95
2023/01/22 05:12:37;;;;;;;6.40;5.72;;;;;;;;;;5094715;28;20076;-95
2023/01/22 05:15:04;;;;;;;6.43;5.82;;;;;;;;;;5096972;28;20046;-95
2023/01/22 05:17:48;;;;;;;6.15;5.53;;;;;;;;;;5096972;28;20070;-95
2023/01/22 05:20:16;;;;;;;7.15;6.22;;;;;;;;;;5094302;28;20411;-95
2023/01/22 05:22:44;;;;;;;6.15;5.55;;;;;;;;;;5095520;28;20397;-96
2023/01/22 05:25:12;;;;;;;6.32;5.68;;;;;;;;;;5095995;28;20109;-95
2023/01/22 05:27:39;;;;;;;6.25;5.63;;;;;;;;;;5095127;28;20550;-96
2023/01/22 05:30:07;;;;;;;5.80;5.30;;;;;;;;;;5094694;28;20048;-95
2023/01/22 05:32:48;;;;;;;6.28;5.68;;;;;;;;;;5093884;28;20109;-96
2023/01/22 05:35:15;;;;;;;6.07;5.22;;;;;;;;;;5095525;28;20060;-95
2023/01/22 05:37:43;;;;;;;5.97;5.38;;;;;;;;;;5096007;28;20111;-95
2023/01/22 05:40:11;;;;;;;5.10;4.70;;;;;;;;;;5094071;28;20048;-96
2023/01/22 05:42:38;;;;;;;5.43;4.93;;;;;;;;;;5094239;28;20489;-96
2023/01/22 05:45:06;;;;;;;5.82;5.32;;;;;;;;;;5092757;28;20070;-95
2023/01/22 05:47:33;;;;;;;6.22;5.35;;;;;;;;;;5094010;28;20109;-95
2023/01/22 05:50:01;;;;;;;5.63;4.95;;;;;;;;;;5093939;28;20040;-95
2023/01/22 05:52:28;;;;;;;5.45;5.00;;;;;;;;;;5093471;28;20401;-95
2023/01/22 05:54:57;;;;;;;6.50;5.93;;;;;;;;;;5093235;28;20048;-95
2023/01/22 05:57:26;;;;;;;5.45;4.97;;;;;;;;;;5093044;28;20048;-94
2023/01/22 05:59:53;;;;;;;6.97;5.50;;;;;;;;;;5093246;28;20549;-95
2023/01/22 06:02:21;;;;;;;5.40;4.88;;;;;;;;;;5093202;28;20051;-95
2023/01/22 06:04:48;;;;;;;5.60;5.10;;;;;;;;;;5095610;28;20135;-94
2023/01/22 06:07:16;;;;;;;5.70;5.10;;;;;;;;;;5097271;28;20464;-95
2023/01/22 06:09:43;;;;;;;5.60;5.00;;;;;;;;;;5096975;28;20040;-96
2023/01/22 06:12:10;;;;;;;5.85;5.38;;;;;;;;;;5096954;28;20134;-94
2023/01/22 06:14:38;;;;;;;6.60;6.00;;;;;;;;;;5096804;28;20040;-94
2023/01/22 06:17:05;;;;;;;6.43;5.80;;;;;;;;;;5096395;28;20561;-93
2023/01/22 06:19:33;;;;;;;6.20;5.60;;;;;;;;;;5096697;28;20488;-94
2023/01/22 06:22:00;;;;;;;5.80;5.30;;;;;;;;;;5096176;28;20059;-93
2023/01/22 06:24:27;;;;;;;6.35;5.40;;;;;;;;;;5096381;28;20136;-93
2023/01/22 06:26:55;;;;;;;5.82;5.22;;;;;;;;;;5096408;28;20146;-95
2023/01/22 06:29:22;;;;;;;5.82;5.32;;;;;;;;;;5096391;28;20048;-93
2023/01/22 06:31:49;;;;;;;5.90;5.40;;;;;;;;;;5096370;28;20048;-93
2023/01/22 06:34:17;;;;;;;6.60;5.70;;;;;;;;;;5096373;28;20117;-95
2023/01/22 06:36:44;;;;;;;6.90;5.88;;;;;;;;;;5096184;28;20044;-93
2023/01/22 06:39:11;;;;;;;6.78;6.07;;;;;;;;;;5096267;28;20134;-93
2023/01/22 06:41:38;;;;;;;6.53;5.78;;;;;;;;;;5096209;28;20074;-93
2023/01/22 06:44:08;;;;;;;6.38;5.78;;;;;;;;;;5096304;28;20507;-93
2023/01/22 06:46:35;;;;;;;7.32;6.32;;;;;;;;;;5096070;28;20504;-93
2023/01/22 06:49:03;;;;;;;6.30;5.75;;;;;;;;;;5096042;28;20051;-93
2023/01/22 06:51:31;;;;;;;7.32;5.93;;;;;;;;;;5096116;28;20048;-93
2023/01/22 06:53:58;;;;;;;6.70;6.07;;;;;;;;;;5095935;28;20040;-93
2023/01/22 06:56:26;;;;;;;6.70;5.90;;;;;;;;;;5095799;28;20411;-93
2023/01/22 06:58:54;;;;;;;6.22;5.63;;;;;;;;;;5096099;28;20123;-93
2023/01/22 07:01:21;;;;;;;6.10;5.50;;;;;;;;;;5095770;28;20044;-93
2023/01/22 07:03:49;;;;;;;6.80;6.20;;;;;;;;;;5095566;28;20127;-93
2023/01/22 07:06:17;;;;;;;6.10;5.50;;;;;;;;;;5095695;28;20052;-93
2023/01/22 07:08:45;;;;;;;6.97;6.28;;;;;;;;;;5095462;28;20135;-93
2023/01/22 07:11:14;;;;;;;9.02;7.68;;;;;;;;;;5095608;28;20052;-93
2023/01/22 07:13:41;;;;;;;31.02;21.48;;;;;;;;;;5095673;28;20500;-93
2023/01/22 07:16:09;;;;;;;14.65;12.63;;;;;;;;;;5095261;28;20135;-93
2023/01/22 07:18:37;;;;;;;7.78;6.85;;;;;;;;;;5095547;28;20059;-93
2023/01/22 07:21:05;;;;;;;11.23;8.27;;;;;;;;;;5095406;28;20040;-93
2023/01/22 07:23:32;;;;;;;11.07;10.07;;;;;;;;;;5095240;28;20051;-93
2023/01/22 07:25:59;;;;;;;10.00;8.98;;;;;;;;;;5095375;28;20075;-93
2023/01/22 07:28:27;;;;;;;9.13;7.65;;;;;;;;;;5095336;28;20051;-93
2023/01/22 07:30:55;;;;;;;7.78;6.97;;;;;;;;;;5095414;28;20100;-94
2023/01/22 07:33:23;;;;;;;7.53;6.70;;;;;;;;;;5095228;28;20109;-92
2023/01/22 07:35:55;;;;;;;7.32;6.60;;;;;;;;;;5095041;28;20155;-92
2023/01/22 07:38:23;;;;;;;11.73;10.52;;;;;;;;;;5095210;28;20139;-94
2023/01/22 07:40:50;;;;;;;6.60;6.00;;;;;;;;;;5095109;28;20054;-92
2023/01/22 07:43:18;;;;;;;13.10;10.30;;;;;;;;;;5094949;28;20138;-93
2023/01/22 07:45:45;;;;;;;25.35;17.48;;;;;;;;;;5095308;28;20073;-93
2023/01/22 07:48:12;;;;;;;10.30;8.07;;;;;;;;;;5096784;28;20058;-93
2023/01/22 07:50:40;;;;;;;6.30;5.70;;;;;;;;;;5097037;28;20051;-93
2023/01/22 07:53:10;;;;;;;6.70;6.10;;;;;;;;;;5101901;28;20048;-92
2023/01/22 07:55:37;;;;;;;9.52;7.10;;;;;;;;;;5095427;28;20108;-92
2023/01/22 07:58:06;;;;;;;5.30;4.80;;;;;;;;;;5094981;28;20632;-94
2023/01/22 08:00:34;;;;;;;8.45;7.75;;;;;;;;;;5094763;28;20109;-93
2023/01/22 08:03:05;;;;;;;5.78;5.28;;;;;;;;;;5094503;28;20075;-93
2023/01/22 08:05:33;;;;;;;5.90;5.40;;;;;;;;;;5094611;28;20079;-94
2023/01/22 08:08:00;;;;;;;5.65;4.90;;;;;;;;;;5094280;28;20063;-93
2023/01/22 08:10:27;;;;;;;6.85;5.55;;;;;;;;;;5094628;28;20083;-92
2023/01/22 08:12:55;;;;;;;8.35;7.57;;;;;;;;;;5094635;28;20058;-94
2023/01/22 08:15:22;;;;;;;8.52;7.72;;;;;;;;;;5094156;28;20158;-93
2023/01/22 08:17:50;;;;;;;6.13;5.50;;;;;;;;;;5094161;28;20048;-92
2023/01/22 08:20:17;;;;;;;6.85;6.15;;;;;;;;;;5094380;28;20051;-93
2023/01/22 08:22:45;;;;;;;6.78;6.15;;;;;;;;;;5094184;28;20066;-94
2023/01/22 08:25:13;;;;;;;6.43;5.78;;;;;;;;;;5094493;28;20101;-94
2023/01/22 08:27:40;;;;;;;6.25;5.65;;;;;;;;;;5093687;28;20083;-92
2023/01/22 08:30:10;;;;;;;9.35;7.85;;;;;;;;;;5093992;28;20576;-90
2023/01/22 08:32:40;;;;;;;30.55;23.05;;;;;;;;;;5094060;28;20048;-90
2023/01/22 08:35:08;;;;;;;12.80;10.60;;;;;;;;;;5093823;28;20123;-91
2023/01/22 08:37:35;;;;;;;13.75;12.30;;;;;;;;;;5094143;28;20113;-91
2023/01/22 08:40:03;;;;;;;62.08;40.42;;;;;;;;;;5094813;28;20056;-90
2023/01/22 08:42:30;;;;;;;14.88;12.68;;;;;;;;;;5094536;28;20444;-91
2023/01/22 08:45:01;;;;;;;6.53;5.93;;;;;;;;;;5093969;28;20054;-91
2023/01/22 08:47:28;;;;;;;11.00;9.90;;;;;;;;;;5093647;28;20047;-90
2023/01/22 08:49:56;;;;;;;7.65;6.85;;;;;;;;;;5093899;28;20218;-90
2023/01/22 08:52:23;;;;;;;7.03;6.43;;;;;;;;;;5093961;28;20054;-92
2023/01/22 08:54:50;;;;;;;15.68;10.93;;;;;;;;;;5093913;28;20462;-92
2023/01/22 08:57:18;;;;;;;11.98;9.35;;;;;;;;;;5093302;28;20115;-91
2023/01/22 08:59:45;;;;;;;9.75;8.43;;;;;;;;;;5093763;28;20089;-91
2023/01/22 09:02:26;;;;;;;8.20;6.65;;;;;;;;;;5093860;28;20081;-90
2023/01/22 09:04:54;;;;;;;8.00;7.18;;;;;;;;;;5093622;28;20147;-91
2023/01/22 09:07:21;;;;;;;6.82;6.15;;;;;;;;;;5093425;28;20075;-91
2023/01/22 09:09:49;;;;;;;8.93;8.13;;;;;;;;;;5093577;28;20063;-91
2023/01/22 09:12:16;;;;;;;6.95;6.35;;;;;;;;;;5093541;28;20044;-91
2023/01/22 09:14:43;;;;;;;7.32;6.63;;;;;;;;;;5093367;28;20404;-90
2023/01/22 09:17:11;;;;;;;11.27;8.10;;;;;;;;;;5092787;28;20411;-90
2023/01/22 09:19:38;;;;;;;7.20;6.50;;;;;;;;;;5093105;28;20044;-90
2023/01/22 09:22:06;;;;;;;8.85;7.95;;;;;;;;;;5093040;28;20050;-90
2023/01/22 09:24:33;;;;;;;5.80;5.30;;;;;;;;;;5092773;28;20060;-90
2023/01/22 09:27:01;;;;;;;8.45;5.88;;;;;;;;;;5093069;28;20450;-90
2023/01/22 09:29:28;;;;;;;8.13;7.32;;;;;;;;;;5093101;28;20052;-89
2023/01/22 09:31:56;;;;;;;7.28;6.57;;;;;;;;;;5092861;28;20127;-89
2023/01/22 09:34:23;;;;;;;9.25;7.28;;;;;;;;;;5093025;28;20059;-89
2023/01/22 09:36:50;;;;;;;9.60;8.25;;;;;;;;;;5092996;28;20050;-91
2023/01/22 09:39:17;;;;;;;7.38;6.68;;;;;;;;;;5092233;28;20111;-90
2023/01/22 09:41:55;;;;;;;6.18;5.57;;;;;;;;;;5093742;28;20130;-90
2023/01/22 09:44:27;;;;;;;7.05;6.35;;;;;;;;;;5092695;28;20052;-90
2023/01/22 09:46:59;;;;;;;6.90;6.25;;;;;;;;;;5092684;28;20048;-90
2023/01/22 09:49:37;;;;;;;7.60;6.88;;;;;;;;;;5091111;28;20404;-90
2023/01/22 09:52:05;;;;;;;25.27;20.10;;;;;;;;;;5092277;28;20519;-89
2023/01/22 09:54:32;;;;;;;9.73;8.73;;;;;;;;;;5093605;28;20046;-90
2023/01/22 09:57:02;;;;;;;13.55;11.55;;;;;;;;;;5092853;28;20124;-89
2023/01/22 09:59:37;;;;;;;9.30;7.25;;;;;;;;;;5092532;28;20058;-89
2023/01/22 10:02:20;;;;;;;11.65;9.75;;;;;;;;;;5093228;28;20175;-92
2023/01/22 10:04:49;;;;;;;9.13;7.93;;;;;;;;;;5091945;28;20492;-89
2023/01/22 10:07:19;;;;;;;9.00;7.68;;;;;;;;;;5092384;28;20290;-90
2023/01/22 10:10:02;;;;;;;12.07;7.18;;;;;;;;;;5092797;28;20058;-90
2023/01/22 10:12:29;;;;;;;20.97;16.50;;;;;;;;;;5075868;28;20142;-89
2023/01/22 10:14:56;;;;;;;22.35;14.57;;;;;;;;;;5092370;28;20293;-89
2023/01/22 10:17:30;;;;;;;7.78;7.07;;;;;;;;;;5092179;28;20052;-90
2023/01/22 10:20:01;;;;;;;18.25;7.15;;;;;;;;;;5092264;28;20079;-89
2023/01/22 10:22:28;;;;;;;8.55;7.63;;;;;;;;;;5092521;28;20047;-89
2023/01/22 10:24:57;;;;;;;6.43;5.88;;;;;;;;;;5093131;28;20102;-89
2023/01/22 10:27:32;;;;;;;14.05;12.60;;;;;;;;;;5092388;28;20074;-89
2023/01/22 10:30:08;;;;;;;9.68;8.73;;;;;;;;;;5092301;28;20510;-89
2023/01/22 10:32:35;;;;;;;7.25;6.53;;;;;;;;;;5093784;28;20044;-89
2023/01/22 10:35:11;;;;;;;12.40;10.48;;;;;;;;;;5091972;28;20127;-89
2023/01/22 10:37:49;;;;;;;9.10;8.30;;;;;;;;;;5092456;28;20120;-88
2023/01/22 10:40:20;;;;;;;14.88;12.55;;;;;;;;;;5091988;28;20052;-88
2023/01/22 10:42:48;;;;;;;13.70;12.25;;;;;;;;;;5093126;28;20040;-89
2023/01/22 10:45:15;;;;;;;13.55;12.15;;;;;;;;;;5091995;28;20051;-88
2023/01/22 10:47:43;;;;;;;7.32;6.72;;;;;;;;;;5092878;28;20062;-89
2023/01/22 10:50:13;;;;;;;9.05;7.55;;;;;;;;;;5093225;28;20046;-88
2023/01/22 10:52:53;;;;;;;8.70;6.90;;;;;;;;;;5095818;28;20101;-89
2023/01/22 10:55:22;;;;;;;9.20;7.40;;;;;;;;;;5095768;28;20498;-88
2023/01/22 10:57:53;;;;;;;15.23;13.63;;;;;;;;;;5096720;28;20083;-88
2023/01/22 11:00:47;;;;;;;13.23;10.57;;;;;;;;;;5096685;28;20048;-89
2023/01/22 11:03:31;;;;;;;12.40;7.85;;;;;;;;;;5095838;28;20054;-88
2023/01/22 11:06:01;;;;;;;10.07;8.93;;;;;;;;;;5095526;28;20078;-88
2023/01/22 11:08:29;;;;;;;13.18;10.55;;;;;;;;;;5095477;28;20492;-89
2023/01/22 11:10:59;;;;;;;11.55;9.35;;;;;;;;;;5096595;28;20047;-88
2023/01/22 11:13:45;;;;;;;8.32;7.53;;;;;;;;;;5096285;28;20047;-88
2023/01/22 11:16:12;;;;;;;9.75;7.78;;;;;;;;;;5096455;28;20043;-89
2023/01/22 11:18:42;;;;;;;6.47;5.88;;;;;;;;;;5096194;28;20066;-89
2023/01/22 11:21:16;;;;;;;9.60;6.75;;;;;;;;;;5096233;28;20044;-89
2023/01/22 11:23:53;;;;;;;6.78;6.03;;;;;;;;;;5096640;28;20085;-88
2023/01/22 11:26:35;;;;;;;7.45;6.55;;;;;;;;;;5095249;28;20047;-88
2023/01/22 11:29:08;;;;;;;14.50;9.35;;;;;;;;;;5095404;28;20044;-89
2023/01/22 11:31:53;;;;;;;7.60;6.75;;;;;;;;;;5095540;28;20056;-89
2023/01/22 11:34:26;;;;;;;7.32;6.53;;;;;;;;;;5095165;28;20105;-88
2023/01/22 11:36:53;;;;;;;7.13;6.40;;;;;;;;;;5095088;28;20048;-89
2023/01/22 11:39:39;;;;;;;7.97;6.55;;;;;;;;;;5095849;28;20055;-90
2023/01/22 11:42:21;;;;;;;6.93;6.22;;;;;;;;;;5095015;28;20052;-89
2023/01/22 11:44:59;;;;;;;6.85;5.95;;;;;;;;;;5094906;28;20052;-90
2023/01/22 11:47:54;;;;;;;23.65;14.73;;;;;;;;;;5096050;28;20054;-89
2023/01/22 11:50:24;;;;;;;6.65;6.00;;;;;;;;;;5095648;28;20493;-89
2023/01/22 11:53:02;;;;;;;6.55;5.95;;;;;;;;;;5094706;28;20051;-90
2023/01/22 11:55:29;;;;;;;7.07;6.32;;;;;;;;;;5095969;28;20071;-89
2023/01/22 11:58:06;;;;;;;8.95;7.45;;;;;;;;;;5094453;28;20058;-89
2023/01/22 12:00:39;;;;;;;8.45;6.90;;;;;;;;;;5094266;28;20054;-89
2023/01/22 12:03:11;;;;;;;8.35;6.80;;;;;;;;;;5094980;28;20074;-90
2023/01/22 12:05:45;;;;;;;10.68;7.85;;;;;;;;;;5094127;28;20048;-90
2023/01/22 12:08:36;;;;;;;10.70;7.53;;;;;;;;;;5094935;28;20051;-90
2023/01/22 12:11:13;;;;;;;9.82;7.60;;;;;;;;;;5085293;28;20052;-91
2023/01/22 12:13:58;;;;;;;20.73;14.80;;;;;;;;;;5095470;28;20048;-90
2023/01/22 12:16:34;;;;;;;23.42;13.40;;;;;;;;;;5095143;28;20511;-88
2023/01/22 12:19:01;;;;;;;17.58;10.43;;;;;;;;;;5095064;28;20469;-88
2023/01/22 12:21:47;;;;;;;20.55;13.07;;;;;;;;;;5095583;28;20052;-88
2023/01/22 12:24:19;;;;;;;14.10;10.18;;;;;;;;;;5095425;28;20052;-88
2023/01/22 12:26:50;;;;;;;10.82;8.63;;;;;;;;;;5094924;28;20058;-88
2023/01/22 12:29:21;;;;;;;9.68;8.00;;;;;;;;;;5094552;28;20059;-89
2023/01/22 12:31:48;;;;;;;14.00;11.23;;;;;;;;;;5095179;28;20511;-88
2023/01/22 12:34:21;;;;;;;9.65;8.70;;;;;;;;;;5095456;28;20055;-88
2023/01/22 12:36:49;;;;;;;;;;;;;;;;;;5094321;28;20135;-88
2023/01/22 12:39:25;;;;;;;11.27;8.18;;;;;;;;;;5094241;28;20353;-88
2023/01/22 12:41:57;;;;;;;8.55;7.15;;;;;;;;;;5095013;28;20044;-88
2023/01/22 12:44:30;;;;;;;8.15;6.88;;;;;;;;;;5093603;28;20132;-88
2023/01/22 12:47:08;;;;;;;12.05;8.00;;;;;;;;;;5094865;28;20070;-88
2023/01/22 12:49:44;;;;;;;15.65;10.48;;;;;;;;;;5094471;28;20131;-88
2023/01/22 12:52:30;;;;;;;19.75;12.68;;;;;;;;;;5094465;28;20044;-88
2023/01/22 12:54:58;;;;;;;11.57;8.68;;;;;;;;;;5094153;28;20052;-88
2023/01/22 12:57:27;;;;;;;12.40;8.23;;;;;;;;;;5095482;28;20044;-89
2023/01/22 12:59:56;;;;;;;9.98;6.82;;;;;;;;;;5094857;28;20412;-88
2023/01/22 13:02:34;;;;;;;70.63;52.83;;;;;;;;;;5094228;28;20131;-88
2023/01/22 13:05:12;;;;;;;15.75;12.70;;;;;;;;;;5094248;28;20209;-88
2023/01/22 13:07:40;;;;;;;24.65;18.08;;;;;;;;;;5095400;28;20048;-87
2023/01/22 13:10:19;;;;;;;25.20;19.88;;;;;;;;;;5094737;28;20056;-89
2023/01/22 13:12:49;;;;;;;20.65;13.73;;;;;;;;;;5094417;28;20078;-89
2023/01/22 13:15:17;;;;;;;19.95;12.20;;;;;;;;;;5095617;28;20048;-89
2023/01/22 13:17:49;;;;;;;10.63;8.32;;;;;;;;;;5094677;28;20094;-88
2023/01/22 13:20:34;;;;;;;12.32;8.93;;;;;;;;;;5095611;28;20040;-88
2023/01/22 13:23:02;;;;;;;12.77;9.10;;;;;;;;;;5094903;28;20048;-89
2023/01/22 13:25:31;;;;;;;12.95;8.88;;;;;;;;;;5094398;28;20052;-89
2023/01/22 13:27:58;;;;;;;12.95;9.70;;;;;;;;;;5093184;28;20280;-88
2023/01/22 13:30:27;;;;;;;14.27;10.77;;;;;;;;;;5093354;28;20144;-89
2023/01/22 13:33:14;;;;;;;16.52;10.55;;;;;;;;;;5092856;28;20040;-88
2023/01/22 13:35:42;;;;;;;19.40;11.25;;;;;;;;;;5093135;28;20097;-89
2023/01/22 13:38:20;;;;;;;14.32;9.57;;;;;;;;;;5092751;28;20059;-88
2023/01/22 13:40:54;;;;;;;16.08;10.38;;;;;;;;;;5094096;28;20048;-88
2023/01/22 13:43:22;;;;;;;18.10;11.10;;;;;;;;;;5093179;28;20044;-88
2023/01/22 13:45:51;;;;;;;16.83;10.80;;;;;;;;;;5093662;28;20127;-88
2023/01/22 13:48:20;;;;;;;20.38;10.95;;;;;;;;;;5092708;28;20048;-87
2023/01/22 13:50:53;;;;;;;18.15;11.48;;;;;;;;;;5092579;28;20051;-89
2023/01/22 13:53:24;;;;;;;16.98;10.70;;;;;;;;;;5092766;28;20385;-88
2023/01/22 13:55:52;;;;;;;20.33;13.25;;;;;;;;;;5092637;28;20484;-89
2023/01/22 13:58:29;;;;;;;21.02;13.98;;;;;;;;;;5092863;28;20377;-88
2023/01/22 14:01:09;;;;;;;15.10;10.55;;;;;;;;;;5092962;28;20109;-88
2023/01/22 14:03:37;;;;;;;15.35;11.70;;;;;;;;;;5092779;28;20052;-88
2023/01/22 14:06:06;;;;;;;18.35;12.25;;;;;;;;;;5092945;28;20051;-90
2023/01/22 14:08:44;;;;;;;17.48;11.27;;;;;;;;;;5092426;28;20048;-87
2023/01/22 14:11:11;;;;;;;16.08;11.95;;;;;;;;;;5092861;28;20055;-88
2023/01/22 14:13:39;;;;;;;18.45;11.43;;;;;;;;;;5093267;28;20059;-88
2023/01/22 14:16:07;;;;;;;16.25;10.63;;;;;;;;;;5092328;28;20488;-89
2023/01/22 14:18:35;;;;;;;18.65;13.82;;;;;;;;;;5092590;28;20055;-88
2023/01/22 14:21:02;;;;;;;22.50;14.70;;;;;;;;;;5092625;28;20048;-89
2023/01/22 14:23:29;;;;;;;20.25;12.65;;;;;;;;;;5093255;28;20411;-88
2023/01/22 14:25:57;;;;;;;20.48;13.63;;;;;;;;;;5094156;28;20055;-89
2023/01/22 14:28:24;;;;;;;21.52;14.10;;;;;;;;;;5096475;28;20480;-87
2023/01/22 14:30:52;;;;;;;21.42;12.70;;;;;;;;;;5097679;28;20086;-88
2023/01/22 14:33:21;;;;;;;19.10;11.55;;;;;;;;;;5097445;28;20052;-88
2023/01/22 14:35:50;;;;;;;20.80;12.70;;;;;;;;;;5096512;28;20048;-88
2023/01/22 14:38:18;;;;;;;23.83;14.63;;;;;;;;;;5096109;28;20095;-89
2023/01/22 14:40:45;;;;;;;20.38;13.48;;;;;;;;;;5097042;28;20051;-89
2023/01/22 14:43:12;;;;;;;21.90;13.13;;;;;;;;;;5097606;28;20084;-88
2023/01/22 14:45:40;;;;;;;20.25;13.20;;;;;;;;;;5096937;28;20052;-88
2023/01/22 14:48:11;;;;;;;22.60;13.73;;;;;;;;;;5097200;28;20055;-88
2023/01/22 14:50:38;;;;;;;22.20;13.57;;;;;;;;;;5097059;28;20048;-88
2023/01/22 14:53:06;;;;;;;22.52;13.27;;;;;;;;;;5095793;28;20048;-88
2023/01/22 14:55:33;;;;;;;23.75;14.60;;;;;;;;;;5095676;28;20054;-87
2023/01/22 14:58:01;;;;;;;24.88;15.00;;;;;;;;;;5095722;28;20500;-88
2023/01/22 15:00:28;;;;;;;25.42;14.77;;;;;;;;;;5095992;28;20052;-89
2023/01/22 15:02:59;;;;;;;20.38;12.63;;;;;;;;;;5096046;28;20054;-88